Time;durP1;ratioP1;P1;durP2;ratioP2;P2;SDS_P1;SDS_P2;PMS_P1;PMS_P2;Temp;Humidity;BMP_temperature;BMP_pressure;BME280_temperature;BME280_humidity;BME280_pressure;Samples;Min_cycle;Max_cycle;Signal;HPM_P1;HPM_P2
2021/09/19 00:01:14;;;;;;;3.33;3.03;;;;;;;14.81;88.46;100919.19;4996352;28;20220;-80
2021/09/19 00:03:41;;;;;;;3.27;3.07;;;;;;;14.80;87.91;100930.59;4995656;28;20709;-77
2021/09/19 00:06:08;;;;;;;4.93;3.40;;;;;;;14.78;87.82;100949.94;4995159;28;20362;-79
2021/09/19 00:08:35;;;;;;;3.60;3.30;;;;;;;14.75;87.57;100942.16;4995290;28;20354;-79
2021/09/19 00:11:01;;;;;;;3.57;3.27;;;;;;;14.73;87.69;100936.94;4995526;28;20792;-79
2021/09/19 00:13:28;;;;;;;4.17;3.30;;;;;;;14.73;87.60;100930.81;4995143;28;20212;-77
2021/09/19 00:15:54;;;;;;;3.73;3.43;;;;;;;14.70;87.48;100937.03;4993980;28;20243;-79
2021/09/19 00:18:20;;;;;;;4.30;2.90;;;;;;;14.68;87.51;100944.94;4994086;28;20625;-79
2021/09/19 00:20:47;;;;;;;4.00;3.70;;;;;;;14.69;87.29;100949.31;4995160;28;20227;-77
2021/09/19 00:23:15;;;;;;;5.50;3.73;;;;;;;14.66;87.26;100945.91;4995073;28;20212;-79
2021/09/19 00:25:42;;;;;;;3.50;3.20;;;;;;;14.65;87.32;100942.41;4995872;28;20231;-79
2021/09/19 00:28:08;;;;;;;4.03;3.53;;;;;;;14.64;87.33;100950.34;4994791;28;20270;-77
2021/09/19 00:30:35;;;;;;;4.00;3.27;;;;;;;14.59;87.67;100945.22;4995322;28;20228;-79
2021/09/19 00:33:01;;;;;;;3.80;3.37;;;;;;;14.63;87.34;100948.63;4995849;28;20262;-78
2021/09/19 00:35:29;;;;;;;4.20;3.63;;;;;;;14.61;87.30;100956.53;4994453;28;20256;-77
2021/09/19 00:37:56;;;;;;;4.40;3.63;;;;;;;14.63;87.06;100953.88;4994907;28;20212;-78
2021/09/19 00:40:24;;;;;;;3.97;3.57;;;;;;;14.59;87.51;100946.97;4994527;28;20224;-79
2021/09/19 00:42:50;;;;;;;4.10;3.70;;;;;;;14.57;87.17;100947.03;4994413;28;20212;-79
2021/09/19 00:45:18;;;;;;;4.43;3.80;;;;;;;14.58;87.24;100951.34;4995488;28;20208;-77
2021/09/19 00:47:47;;;;;;;4.83;3.50;;;;;;;14.57;87.29;100943.50;4996891;28;20240;-78
2021/09/19 00:50:15;;;;;;;4.97;4.00;;;;;;;14.58;87.33;100946.09;4996587;28;20227;-79
2021/09/19 00:52:45;;;;;;;3.77;3.33;;;;;;;14.55;87.54;100938.28;4996591;28;20221;-81
2021/09/19 00:55:12;;;;;;;3.17;2.97;;;;;;;14.50;87.73;100937.53;4996862;28;20212;-79
2021/09/19 00:57:41;;;;;;;6.97;3.87;;;;;;;14.48;88.13;100918.34;4995984;28;20236;-80
2021/09/19 01:00:10;;;;;;;3.97;3.57;;;;;;;14.49;88.42;100913.03;4995715;28;20231;-78
2021/09/19 01:02:37;;;;;;;4.17;3.23;;;;;;;14.53;88.01;100918.19;4995940;28;20208;-80
2021/09/19 01:05:04;;;;;;;4.70;3.50;;;;;;;14.50;88.44;100914.75;4995602;28;20223;-79
2021/09/19 01:07:31;;;;;;;3.60;3.27;;;;;;;14.44;88.63;100893.91;4995354;28;20227;-80
2021/09/19 01:09:59;;;;;;;3.40;3.10;;;;;;;14.44;88.34;100893.91;4994788;28;20587;-81
2021/09/19 01:12:25;;;;;;;3.60;3.37;;;;;;;14.48;88.62;100894.69;4995750;28;20231;-79
2021/09/19 01:14:53;;;;;;;4.80;3.50;;;;;;;14.47;88.14;100888.59;4994991;28;20262;-78
2021/09/19 01:17:21;;;;;;;3.73;3.53;;;;;;;14.46;88.80;100876.34;4995904;28;20221;-80
2021/09/19 01:19:48;;;;;;;4.07;3.77;;;;;;;14.47;88.29;100878.09;4994969;28;20227;-78
2021/09/19 01:22:15;;;;;;;5.30;3.70;;;;;;;14.44;88.67;100861.53;4995088;28;20274;-80
2021/09/19 01:24:43;;;;;;;5.40;3.93;;;;;;;14.44;88.97;100866.78;4995845;28;20507;-78
2021/09/19 01:27:10;;;;;;;4.13;3.80;;;;;;;14.45;89.05;100863.28;4995382;28;20254;-78
2021/09/19 01:29:36;;;;;;;7.60;4.70;;;;;;;14.44;88.73;100869.41;4995224;28;20242;-79
2021/09/19 01:32:03;;;;;;;5.60;3.97;;;;;;;14.44;88.93;100866.78;4995731;28;20554;-78
2021/09/19 01:34:29;;;;;;;5.17;3.90;;;;;;;14.40;88.98;100860.75;4995299;28;20203;-79
2021/09/19 01:36:56;;;;;;;4.30;3.73;;;;;;;14.41;88.90;100875.63;4995368;28;20243;-80
2021/09/19 01:39:22;;;;;;;3.87;3.50;;;;;;;14.41;89.14;100861.63;4994797;28;20428;-78
2021/09/19 01:41:50;;;;;;;4.30;3.60;;;;;;;14.40;89.03;100860.75;4995505;28;20208;-80
2021/09/19 01:44:17;;;;;;;4.20;3.87;;;;;;;14.40;88.99;100866.00;4995083;28;20204;-80
2021/09/19 01:46:43;;;;;;;4.73;4.13;;;;;;;14.39;88.97;100860.78;4992989;28;20240;-80
2021/09/19 01:49:10;;;;;;;5.37;3.87;;;;;;;14.36;89.28;100851.25;4993194;28;20255;-78
2021/09/19 01:51:36;;;;;;;4.40;4.00;;;;;;;14.37;89.11;100855.59;4994074;28;20299;-78
2021/09/19 01:54:03;;;;;;;4.57;4.17;;;;;;;14.38;89.16;100859.09;4993096;28;20212;-80
2021/09/19 01:56:29;;;;;;;4.57;4.17;;;;;;;14.34;89.39;100854.81;4993437;28;20255;-78
2021/09/19 01:58:57;;;;;;;5.03;4.40;;;;;;;14.30;89.82;100833.03;4991653;28;20212;-79
2021/09/19 02:01:24;;;;;;;4.37;3.90;;;;;;;14.30;89.37;100841.78;4992431;28;20239;-79
2021/09/19 02:03:51;;;;;;;5.83;4.87;;;;;;;14.31;89.25;100847.91;4991215;28;20610;-77
2021/09/19 02:06:18;;;;;;;5.27;4.73;;;;;;;14.30;89.19;100854.91;4992092;28;20200;-78
2021/09/19 02:08:45;;;;;;;4.27;3.97;;;;;;;14.30;89.23;100849.66;4991969;28;20205;-79
2021/09/19 02:11:14;;;;;;;4.63;4.23;;;;;;;14.32;89.13;100862.75;4992207;28;20239;-79
2021/09/19 02:13:42;;;;;;;4.53;3.93;;;;;;;14.29;88.95;100857.56;4992684;28;20348;-79
2021/09/19 02:16:11;;;;;;;5.20;4.60;;;;;;;14.29;88.63;100868.06;4992882;28;20232;-77
2021/09/19 02:18:37;;;;;;;4.83;4.33;;;;;;;14.30;88.75;100873.28;4992900;28;20273;-78
2021/09/19 02:21:06;;;;;;;5.77;4.47;;;;;;;14.26;89.00;100852.41;4992911;28;20272;-80
2021/09/19 02:23:32;;;;;;;4.73;4.17;;;;;;;14.25;89.13;100848.94;4992841;28;20230;-79
2021/09/19 02:25:59;;;;;;;4.50;4.10;;;;;;;14.23;89.10;100853.38;4992117;28;20252;-80
2021/09/19 02:28:25;;;;;;;5.30;4.80;;;;;;;14.24;88.91;100855.06;4991130;28;20682;-79
2021/09/19 02:30:52;;;;;;;4.90;4.40;;;;;;;14.22;88.86;100863.91;4992406;28;20690;-80
2021/09/19 02:33:20;;;;;;;4.10;3.80;;;;;;;14.24;88.60;100869.97;4991976;28;20208;-78
2021/09/19 02:35:47;;;;;;;4.80;4.47;;;;;;;14.24;88.59;100870.81;4991609;28;20634;-77
2021/09/19 02:38:13;;;;;;;4.30;3.87;;;;;;;14.23;88.71;100863.88;4990742;28;20204;-81
2021/09/19 02:40:40;;;;;;;6.53;4.37;;;;;;;14.23;88.73;100865.59;4990913;28;20254;-79
2021/09/19 02:43:06;;;;;;;4.80;4.33;;;;;;;14.19;88.59;100861.34;4990443;28;20207;-77
2021/09/19 02:45:33;;;;;;;4.47;4.07;;;;;;;14.18;88.41;100873.63;4991699;28;20251;-78
2021/09/19 02:47:59;;;;;;;5.10;4.50;;;;;;;14.16;87.92;100877.19;4991131;28;20242;-78
2021/09/19 02:50:27;;;;;;;5.20;4.73;;;;;;;14.11;88.01;100874.69;4991045;28;20243;-78
2021/09/19 02:52:53;;;;;;;4.53;4.13;;;;;;;14.09;87.80;100882.63;4991531;28;20217;-78
2021/09/19 02:55:21;;;;;;;4.83;4.53;;;;;;;14.08;87.59;100886.13;4991679;28;20740;-79
2021/09/19 02:57:48;;;;;;;5.13;4.60;;;;;;;14.06;87.91;100877.44;4989936;28;20255;-77
2021/09/19 03:00:18;;;;;;;5.50;4.30;;;;;;;14.04;87.68;100884.50;4989909;28;20219;-77
2021/09/19 03:02:45;;;;;;;4.53;4.13;;;;;;;14.05;87.67;100883.59;4991601;28;20251;-78
2021/09/19 03:05:12;;;;;;;4.50;4.10;;;;;;;14.03;87.55;100888.03;4990673;28;20275;-79
2021/09/19 03:07:40;;;;;;;4.77;4.27;;;;;;;14.02;87.86;100888.06;4991667;28;20234;-79
2021/09/19 03:10:09;;;;;;;4.63;4.30;;;;;;;14.03;87.82;100880.16;4991110;28;20251;-78
2021/09/19 03:12:35;;;;;;;5.47;4.90;;;;;;;14.01;87.77;100878.44;4991846;28;20232;-80
2021/09/19 03:15:02;;;;;;;4.60;4.07;;;;;;;14.00;87.71;100888.09;4991111;28;20247;-77
2021/09/19 03:17:29;;;;;;;4.97;4.57;;;;;;;13.93;87.67;100881.28;4990352;28;20258;-79
2021/09/19 03:19:55;;;;;;;4.83;4.33;;;;;;;13.89;88.24;100870.00;4989762;28;20285;-78
2021/09/19 03:22:22;;;;;;;5.10;4.53;;;;;;;13.88;88.08;100881.41;4991142;28;20204;-77
2021/09/19 03:24:49;;;;;;;4.70;4.23;;;;;;;13.89;87.85;100880.50;4991080;28;20249;-80
2021/09/19 03:27:16;;;;;;;4.83;4.43;;;;;;;13.87;87.82;100889.31;4989976;28;20265;-80
2021/09/19 03:29:42;;;;;;;5.97;4.87;;;;;;;13.82;87.66;100883.31;4990007;28;20269;-77
2021/09/19 03:32:08;;;;;;;4.90;4.50;;;;;;;13.81;87.28;100882.44;4991263;28;20200;-78
2021/09/19 03:34:35;;;;;;;4.90;4.50;;;;;;;13.80;87.75;100885.13;4989456;28;20234;-80
2021/09/19 03:37:01;;;;;;;4.20;3.90;;;;;;;13.78;87.47;100894.81;4990114;28;20790;-77
2021/09/19 03:39:28;;;;;;;4.60;4.20;;;;;;;13.77;87.13;100887.81;4989988;28;20713;-79
2021/09/19 03:41:55;;;;;;;4.60;4.20;;;;;;;13.72;87.56;100887.94;4990636;28;20211;-79
2021/09/19 03:44:22;;;;;;;5.17;4.67;;;;;;;13.69;87.13;100891.47;4990007;28;20239;-78
2021/09/19 03:46:48;;;;;;;4.30;3.90;;;;;;;13.68;87.70;100881.91;4989833;28;20242;-79
2021/09/19 03:49:14;;;;;;;4.83;4.10;;;;;;;13.65;87.29;100881.97;4991151;28;20225;-78
2021/09/19 03:51:41;;;;;;;4.87;4.47;;;;;;;13.65;87.79;100868.00;4994288;28;20487;-77
2021/09/19 03:54:07;;;;;;;5.03;4.53;;;;;;;13.62;87.67;100866.31;4994398;28;20752;-79
2021/09/19 03:56:34;;;;;;;4.50;4.10;;;;;;;13.66;87.68;100877.59;4993586;28;20235;-78
2021/09/19 03:59:01;;;;;;;6.03;5.23;;;;;;;13.62;87.42;100875.97;4992990;28;20251;-78
2021/09/19 04:01:28;;;;;;;5.57;5.07;;;;;;;13.61;87.63;100868.97;4993423;28;20265;-79
2021/09/19 04:03:54;;;;;;;4.83;4.43;;;;;;;13.54;87.70;100868.28;4993879;28;20255;-79
2021/09/19 04:06:20;;;;;;;4.80;4.30;;;;;;;13.56;87.97;100869.09;4994035;28;20204;-78
2021/09/19 04:08:47;;;;;;;6.10;4.70;;;;;;;13.54;87.80;100868.28;4992645;28;20290;-77
2021/09/19 04:11:13;;;;;;;5.30;4.73;;;;;;;13.53;87.70;100871.78;4992992;28;20208;-79
2021/09/19 04:13:39;;;;;;;5.57;5.07;;;;;;;13.48;87.64;100871.03;4994062;28;20590;-78
2021/09/19 04:16:07;;;;;;;5.40;4.97;;;;;;;13.44;87.61;100874.63;4995140;28;20235;-78
2021/09/19 04:18:33;;;;;;;6.77;4.77;;;;;;;13.38;88.45;100862.53;4994751;28;20250;-79
2021/09/19 04:20:59;;;;;;;5.17;4.50;;;;;;;13.34;88.39;100855.63;4994874;28;20235;-78
2021/09/19 04:23:26;;;;;;;6.57;4.60;;;;;;;13.36;88.22;100859.09;4995072;28;20222;-79
2021/09/19 04:25:52;;;;;;;4.90;4.40;;;;;;;13.32;88.37;100860.06;4994896;28;20238;-80
2021/09/19 04:28:19;;;;;;;6.03;5.13;;;;;;;13.30;88.46;100854.84;4994809;28;20416;-79
2021/09/19 04:30:45;;;;;;;5.10;4.67;;;;;;;13.27;88.40;100859.25;4995131;28;20235;-80
2021/09/19 04:33:13;;;;;;;5.07;4.60;;;;;;;13.25;88.61;100861.91;4994706;28;20231;-80
2021/09/19 04:35:39;;;;;;;4.70;4.30;;;;;;;13.22;88.67;100856.75;4995017;28;20262;-79
2021/09/19 04:38:06;;;;;;;4.93;4.57;;;;;;;13.22;88.81;100855.88;4994773;28;21099;-78
2021/09/19 04:40:33;;;;;;;5.40;4.90;;;;;;;13.22;88.68;100850.63;4995233;28;20227;-79
2021/09/19 04:42:59;;;;;;;5.33;4.80;;;;;;;13.18;88.82;100856.84;4994404;28;20211;-79
2021/09/19 04:45:25;;;;;;;5.17;4.67;;;;;;;13.13;88.69;100851.72;4995768;28;20219;-78
2021/09/19 04:47:52;;;;;;;5.20;4.70;;;;;;;13.10;89.07;100842.16;4995353;28;20274;-80
2021/09/19 04:50:19;;;;;;;5.47;4.90;;;;;;;13.15;89.15;100846.44;4994683;28;20313;-79
2021/09/19 04:52:46;;;;;;;4.83;4.23;;;;;;;13.15;88.84;100849.91;4994832;28;20255;-79
2021/09/19 04:55:12;;;;;;;5.23;4.83;;;;;;;13.14;89.23;100856.06;4996295;28;20254;-79
2021/09/19 04:57:39;;;;;;;5.87;5.30;;;;;;;13.14;89.01;100845.59;4994609;28;20254;-79
2021/09/19 05:00:06;;;;;;;8.10;5.70;;;;;;;13.15;88.84;100846.44;4993503;28;20271;-78
2021/09/19 05:02:33;;;;;;;5.57;5.07;;;;;;;13.15;89.35;100844.66;4995328;28;20227;-80
2021/09/19 05:04:59;;;;;;;5.53;5.00;;;;;;;13.13;89.05;100837.75;4994338;28;20239;-79
2021/09/19 05:07:27;;;;;;;5.53;5.13;;;;;;;13.13;89.05;100840.38;4994809;28;20686;-79
2021/09/19 05:09:53;;;;;;;5.33;4.93;;;;;;;13.14;89.00;100844.69;4994774;28;20228;-79
2021/09/19 05:12:19;;;;;;;5.37;4.47;;;;;;;13.15;88.85;100841.19;4995477;28;20214;-80
2021/09/19 05:14:48;;;;;;;5.23;4.73;;;;;;;13.18;89.14;100841.09;4992149;28;20211;-77
2021/09/19 05:17:14;;;;;;;6.60;4.67;;;;;;;13.18;88.65;100854.22;4992927;28;20386;-77
2021/09/19 05:19:40;;;;;;;5.60;5.17;;;;;;;13.15;89.04;100843.81;4992502;28;20240;-78
2021/09/19 05:22:07;;;;;;;5.03;4.63;;;;;;;13.12;89.51;100842.09;4992904;28;20231;-79
2021/09/19 05:24:34;;;;;;;5.67;4.73;;;;;;;13.15;89.16;100844.66;4992755;28;20240;-77
2021/09/19 05:27:01;;;;;;;7.10;4.97;;;;;;;13.17;89.05;100853.38;4993788;28;20417;-79
2021/09/19 05:29:27;;;;;;;5.50;4.90;;;;;;;13.17;88.98;100842.03;4992076;28;20318;-79
2021/09/19 05:31:53;;;;;;;6.77;5.10;;;;;;;13.20;89.61;100848.06;4992622;28;20273;-77
2021/09/19 05:34:20;;;;;;;5.53;5.03;;;;;;;13.15;89.37;100836.81;4992798;28;20203;-78
2021/09/19 05:36:46;;;;;;;9.13;6.13;;;;;;;13.20;89.35;100836.69;4992909;28;20273;-79
2021/09/19 05:39:12;;;;;;;7.23;5.20;;;;;;;13.22;89.45;100835.78;4993063;28;20231;-77
2021/09/19 05:41:40;;;;;;;5.87;5.37;;;;;;;13.24;89.13;100849.72;4993505;28;20211;-80
2021/09/19 05:44:07;;;;;;;5.20;4.80;;;;;;;13.26;88.98;100855.78;4993258;28;20248;-79
2021/09/19 05:46:33;;;;;;;5.43;4.93;;;;;;;13.27;88.69;100856.63;4993639;28;21045;-79
2021/09/19 05:49:00;;;;;;;5.90;5.33;;;;;;;13.31;88.41;100874.06;4992870;28;20690;-80
2021/09/19 05:51:26;;;;;;;5.87;5.07;;;;;;;13.35;88.82;100869.59;4993747;28;20281;-79
2021/09/19 05:53:53;;;;;;;8.67;5.43;;;;;;;13.35;88.59;100880.09;4994201;28;20219;-77
2021/09/19 05:56:19;;;;;;;6.77;5.27;;;;;;;13.36;88.73;100874.81;4991508;28;20270;-79
2021/09/19 05:58:47;;;;;;;5.70;5.30;;;;;;;13.38;88.32;100887.88;4989735;28;20721;-79
2021/09/19 06:01:13;;;;;;;5.13;4.73;;;;;;;13.37;88.13;100883.53;4991675;28;20204;-79
2021/09/19 06:03:41;;;;;;;6.07;5.47;;;;;;;13.39;88.52;100890.47;4991986;28;20258;-77
2021/09/19 06:06:07;;;;;;;6.00;5.50;;;;;;;13.41;88.10;100896.53;4991534;28;20200;-79
2021/09/19 06:08:33;;;;;;;5.03;4.63;;;;;;;13.41;88.24;100898.31;4991638;28;20238;-80
2021/09/19 06:11:00;;;;;;;5.17;4.83;;;;;;;13.38;88.30;100888.75;4990280;28;20535;-77
2021/09/19 06:13:26;;;;;;;5.83;5.30;;;;;;;13.40;87.93;100904.44;4990306;28;20250;-79
2021/09/19 06:15:54;;;;;;;8.43;5.03;;;;;;;13.38;87.92;100907.09;4989642;28;20212;-79
2021/09/19 06:18:20;;;;;;;5.23;4.73;;;;;;;13.40;87.49;100901.81;4989487;28;20667;-78
2021/09/19 06:20:46;;;;;;;6.27;5.00;;;;;;;13.44;87.72;100913.97;4990636;28;20627;-78
2021/09/19 06:23:13;;;;;;;5.17;4.77;;;;;;;13.46;87.36;100914.81;4986781;28;20638;-77
2021/09/19 06:25:39;;;;;;;6.93;4.57;;;;;;;13.45;87.37;100915.69;4986737;28;20203;-77
2021/09/19 06:28:06;;;;;;;5.10;4.60;;;;;;;13.45;87.10;100924.41;4987259;28;20208;-78
2021/09/19 06:30:32;;;;;;;5.03;4.63;;;;;;;13.50;87.23;100924.31;4987072;28;20338;-78
2021/09/19 06:33:00;;;;;;;5.00;4.60;;;;;;;13.50;87.54;100924.31;4987315;28;20248;-77
2021/09/19 06:35:27;;;;;;;5.20;4.77;;;;;;;13.53;87.05;100926.00;4987247;28;20492;-78
2021/09/19 06:37:53;;;;;;;4.90;4.50;;;;;;;13.56;86.86;100934.66;4987752;28;20622;-77
2021/09/19 06:40:19;;;;;;;5.17;4.77;;;;;;;13.58;86.98;100937.25;4987376;28;20259;-76
2021/09/19 06:42:46;;;;;;;4.53;4.23;;;;;;;13.58;86.50;100951.22;4988037;28;20244;-78
2021/09/19 06:45:12;;;;;;;4.70;4.30;;;;;;;13.59;86.73;100946.84;4987022;28;20234;-79
2021/09/19 06:47:40;;;;;;;5.03;4.40;;;;;;;13.61;86.38;100963.41;4986814;28;20609;-77
2021/09/19 06:50:09;;;;;;;5.63;4.73;;;;;;;13.63;85.92;100972.09;4986727;28;20238;-77
2021/09/19 06:52:35;;;;;;;4.80;4.33;;;;;;;13.64;85.68;100990.44;4985594;28;20625;-78
2021/09/19 06:55:02;;;;;;;5.03;4.63;;;;;;;13.66;85.82;100991.25;4986507;28;20205;-78
2021/09/19 06:57:29;;;;;;;4.67;4.27;;;;;;;13.67;85.80;100973.75;4985628;28;20286;-79
2021/09/19 06:59:56;;;;;;;4.20;3.90;;;;;;;13.67;85.41;100992.13;4984831;28;20270;-76
2021/09/19 07:02:22;;;;;;;5.13;4.67;;;;;;;13.68;85.53;100989.47;4986731;28;20240;-77
2021/09/19 07:04:48;;;;;;;5.17;4.50;;;;;;;13.69;85.42;100982.44;4985400;28;20662;-79
2021/09/19 07:07:18;;;;;;;4.70;4.30;;;;;;;13.70;85.12;100984.19;4988304;28;20698;-77
2021/09/19 07:09:45;;;;;;;4.87;4.00;;;;;;;13.71;85.29;100985.91;4986884;28;20228;-77
2021/09/19 07:12:11;;;;;;;4.60;4.30;;;;;;;13.73;85.31;100986.72;4989056;28;20315;-79
2021/09/19 07:14:38;;;;;;;4.70;4.23;;;;;;;13.79;84.89;100998.84;4989701;28;20269;-77
2021/09/19 07:17:04;;;;;;;5.33;4.90;;;;;;;13.82;85.62;100985.66;4989011;28;20240;-78
2021/09/19 07:19:31;;;;;;;4.77;4.40;;;;;;;13.86;84.87;101003.06;4988830;28;20261;-79
2021/09/19 07:21:57;;;;;;;4.20;3.57;;;;;;;13.91;84.36;101014.28;4991541;28;20218;-78
2021/09/19 07:24:25;;;;;;;4.77;4.37;;;;;;;13.96;84.33;101035.22;4991914;28;20234;-77
2021/09/19 07:26:51;;;;;;;4.53;4.13;;;;;;;14.01;84.05;101043.81;4994419;28;20208;-79
2021/09/19 07:29:18;;;;;;;5.33;4.27;;;;;;;14.03;83.17;101069.16;4991346;28;20243;-79
2021/09/19 07:31:47;;;;;;;4.73;4.17;;;;;;;14.03;82.69;101077.03;4991497;28;20216;-74
2021/09/19 07:34:13;;;;;;;4.97;4.43;;;;;;;14.09;83.57;101078.63;4992016;28;20729;-76
2021/09/19 07:36:40;;;;;;;6.47;4.47;;;;;;;14.14;82.53;101082.00;4990492;28;20255;-79
2021/09/19 07:39:08;;;;;;;4.63;4.23;;;;;;;14.16;82.40;101105.63;4989598;28;20270;-79
2021/09/19 07:41:36;;;;;;;4.57;4.27;;;;;;;14.23;82.20;101105.44;4990483;28;20242;-77
2021/09/19 07:44:04;;;;;;;4.63;4.30;;;;;;;14.27;81.69;101121.97;4989965;28;20243;-78
2021/09/19 07:46:31;;;;;;;3.80;3.50;;;;;;;14.30;81.76;101135.03;4990420;28;20237;-78
2021/09/19 07:48:58;;;;;;;4.10;3.80;;;;;;;14.33;81.19;101149.84;4989584;28;20250;-78
2021/09/19 07:51:24;;;;;;;7.37;4.13;;;;;;;14.37;80.92;101157.66;4989231;28;20643;-78
2021/09/19 07:53:52;;;;;;;4.90;4.27;;;;;;;14.36;81.62;101148.03;4990831;28;20216;-77
2021/09/19 07:56:20;;;;;;;5.60;4.30;;;;;;;14.44;80.92;101142.59;4990244;28;20236;-78
2021/09/19 07:58:48;;;;;;;4.87;4.30;;;;;;;14.50;79.61;101202.88;4991963;28;20855;-80
2021/09/19 08:01:14;;;;;;;4.30;4.00;;;;;;;14.50;78.92;101234.41;4991129;28;20277;-79
2021/09/19 08:03:41;;;;;;;4.23;3.90;;;;;;;14.53;79.32;101222.94;4992455;28;20529;-78
2021/09/19 08:06:07;;;;;;;4.60;4.20;;;;;;;14.56;78.92;101252.69;4991177;28;20240;-79
2021/09/19 08:08:33;;;;;;;4.43;4.10;;;;;;;14.62;78.92;101241.16;4991282;28;20210;-78
2021/09/19 08:11:00;;;;;;;4.10;3.67;;;;;;;14.68;77.50;101283.06;4991162;28;20231;-78
2021/09/19 08:13:26;;;;;;;4.53;4.13;;;;;;;14.63;76.78;101319.97;4991573;28;20381;-80
2021/09/19 08:15:54;;;;;;;4.23;3.93;;;;;;;14.67;77.09;101318.16;4988209;28;20204;-79
2021/09/19 08:18:20;;;;;;;4.37;3.90;;;;;;;14.67;77.63;101303.25;4988145;28;20263;-77
2021/09/19 08:20:47;;;;;;;4.03;3.73;;;;;;;14.77;75.21;101363.50;4987884;28;20263;-78
2021/09/19 08:23:13;;;;;;;5.83;4.57;;;;;;;14.77;74.41;101421.31;4987584;28;20213;-79
2021/09/19 08:25:40;;;;;;;3.43;3.13;;;;;;;14.74;73.53;101435.38;4987057;28;20696;-77
2021/09/19 08:28:06;;;;;;;3.80;3.40;;;;;;;14.75;73.33;101447.63;4989116;28;20311;-79
2021/09/19 08:30:33;;;;;;;4.27;3.87;;;;;;;14.73;73.65;101445.91;4987732;28;20229;-78
2021/09/19 08:33:00;;;;;;;3.37;3.17;;;;;;;14.74;73.08;101472.16;4988431;28;20243;-78
2021/09/19 08:35:27;;;;;;;4.23;3.83;;;;;;;14.78;73.87;101430.91;4988743;28;20227;-79
2021/09/19 08:37:53;;;;;;;4.00;3.70;;;;;;;14.84;73.38;101455.31;4988991;28;20249;-80
2021/09/19 08:40:19;;;;;;;3.90;3.60;;;;;;;14.88;72.88;101470.16;4987574;28;20614;-77
2021/09/19 08:42:52;;;;;;;3.63;3.20;;;;;;;14.93;72.80;101472.66;4987509;28;20244;-79
2021/09/19 08:45:19;;;;;;;3.87;3.57;;;;;;;14.93;72.40;101491.06;4986661;28;20343;-78
2021/09/19 08:47:45;;;;;;;3.87;3.57;;;;;;;14.93;71.68;101535.78;4987146;28;20217;-79
2021/09/19 08:50:13;;;;;;;7.20;3.83;;;;;;;14.95;70.56;101562.91;4987274;28;20310;-80
2021/09/19 08:52:40;;;;;;;4.27;3.87;;;;;;;14.91;70.45;101569.13;4987111;28;20265;-79
2021/09/19 08:55:08;;;;;;;4.20;3.80;;;;;;;14.91;70.33;101576.13;4986052;28;20650;-76
2021/09/19 08:57:34;;;;;;;5.07;3.60;;;;;;;14.91;70.84;101552.47;4988413;28;20212;-77
2021/09/19 09:00:04;;;;;;;3.73;3.30;;;;;;;14.87;70.79;101559.56;4986511;28;20256;-80
2021/09/19 09:02:46;;;;;;;3.80;3.50;;;;;;;14.84;69.60;101615.66;4985805;28;20214;-79
2021/09/19 09:05:20;;;;;;;4.67;3.50;;;;;;;14.78;70.17;101597.38;4985495;28;20216;-78
2021/09/19 09:07:47;;;;;;;9.73;4.60;;;;;;;14.78;69.94;101597.38;4989982;28;20222;-80
2021/09/19 09:10:13;;;;;;;6.30;3.83;;;;;;;14.74;70.27;101594.84;4993352;28;20730;-79
2021/09/19 09:12:40;;;;;;;4.57;4.23;;;;;;;14.72;70.59;101581.72;4992907;28;20213;-80
2021/09/19 09:15:08;;;;;;;3.90;3.60;;;;;;;14.71;71.04;101551.09;4991112;28;20209;-79
2021/09/19 09:17:35;;;;;;;3.87;3.57;;;;;;;14.69;70.97;101559.00;4991827;28;20658;-79
2021/09/19 09:20:01;;;;;;;5.70;4.00;;;;;;;14.61;71.15;101544.28;4988188;28;20673;-79
2021/09/19 09:22:32;;;;;;;3.83;3.53;;;;;;;14.51;70.13;101567.19;4987714;28;20219;-80
2021/09/19 09:25:08;;;;;;;4.07;3.67;;;;;;;14.48;70.87;101565.44;4988106;28;20640;-80
2021/09/19 09:27:40;;;;;;;4.40;4.00;;;;;;;14.47;71.30;101542.72;4988245;28;20200;-78
2021/09/19 09:30:12;;;;;;;9.07;4.20;;;;;;;14.47;71.58;101524.31;4986449;28;20238;-80
2021/09/19 09:33:00;;;;;;;4.43;4.03;;;;;;;14.49;71.98;101506.75;4987877;28;20626;-80
2021/09/19 09:35:33;;;;;;;5.40;4.30;;;;;;;14.53;71.81;101523.34;4988401;28;21202;-80
2021/09/19 09:38:00;;;;;;;4.40;4.10;;;;;;;14.53;71.85;101525.97;4986784;28;20236;-77
2021/09/19 09:40:29;;;;;;;4.70;4.27;;;;;;;14.61;71.34;101528.50;4987802;28;20270;-79
2021/09/19 09:43:10;;;;;;;4.63;4.23;;;;;;;14.64;71.92;101515.28;4987696;28;20286;-79
2021/09/19 09:45:38;;;;;;;5.23;4.83;;;;;;;14.66;72.04;101516.13;4986366;28;20279;-77
2021/09/19 09:48:24;;;;;;;4.10;3.70;;;;;;;14.70;71.71;101530.94;4987507;28;20212;-79
2021/09/19 09:50:51;;;;;;;4.70;4.30;;;;;;;14.72;71.44;101533.53;4987125;28;20228;-80
2021/09/19 09:53:21;;;;;;;6.57;6.00;;;;;;;14.75;72.15;101515.09;4987108;28;20266;-78
2021/09/19 09:55:48;;;;;;;4.87;4.47;;;;;;;14.75;73.41;101460.78;4987847;28;20204;-79
2021/09/19 09:58:18;;;;;;;5.30;4.87;;;;;;;14.73;71.59;101520.38;4987203;28;20232;-78
2021/09/19 10:00:45;;;;;;;4.40;4.00;;;;;;;14.73;71.53;101519.50;4987254;28;20232;-79
2021/09/19 10:03:12;;;;;;;4.67;4.27;;;;;;;14.73;72.25;101503.72;4987528;28;20207;-79
2021/09/19 10:05:40;;;;;;;4.13;3.83;;;;;;;14.73;71.52;101520.38;4987377;28;20236;-79
2021/09/19 10:08:07;;;;;;;4.73;4.20;;;;;;;14.72;71.74;101517.78;4986315;28;20243;-79
2021/09/19 10:10:40;;;;;;;4.70;3.23;;;;;;;14.70;71.13;101515.16;4987213;28;20275;-78
2021/09/19 10:13:07;;;;;;;4.40;3.97;;;;;;;14.69;70.20;101572.13;4987023;28;20267;-80
2021/09/19 10:15:34;;;;;;;4.43;4.10;;;;;;;14.73;69.95;101572.06;4986377;28;20271;-78
2021/09/19 10:18:01;;;;;;;3.93;3.53;;;;;;;14.75;70.07;101586.06;4986852;28;20231;-78
2021/09/19 10:20:30;;;;;;;7.30;5.27;;;;;;;14.74;70.00;101581.69;4986449;28;20263;-79
2021/09/19 10:23:03;;;;;;;3.87;3.30;;;;;;;14.76;69.38;101598.31;4986626;28;20216;-78
2021/09/19 10:25:40;;;;;;;3.13;2.93;;;;;;;14.76;69.76;101599.16;4986495;28;20281;-77
2021/09/19 10:28:23;;;;;;;3.73;3.43;;;;;;;14.78;69.79;101586.84;4984847;28;20690;-77
2021/09/19 10:31:17;;;;;;;3.40;3.13;;;;;;;14.76;70.35;101558.88;4984428;28;20236;-77
2021/09/19 10:33:46;;;;;;;3.70;3.40;;;;;;;14.80;70.97;101537.75;4984324;28;20278;-79
2021/09/19 10:36:23;;;;;;;3.37;3.07;;;;;;;14.87;69.48;101581.44;4985194;28;20243;-80
2021/09/19 10:38:50;;;;;;;3.00;2.70;;;;;;;14.91;68.38;101626.94;4984569;28;20231;-77
2021/09/19 10:41:19;;;;;;;3.13;2.93;;;;;;;14.98;68.09;101643.47;4984286;28;20257;-78
2021/09/19 10:43:49;;;;;;;3.00;2.50;;;;;;;15.01;67.95;101652.19;4983918;28;20658;-77
2021/09/19 10:46:45;;;;;;;3.07;2.87;;;;;;;15.01;66.48;101694.25;4982487;28;20226;-76
2021/09/19 10:49:14;;;;;;;2.60;2.40;;;;;;;15.07;67.35;101686.25;4983727;28;20228;-76
2021/09/19 10:52:10;;;;;;;2.70;2.50;;;;;;;15.10;66.53;101690.59;4981860;28;20220;-77
2021/09/19 10:54:48;;;;;;;2.80;2.60;;;;;;;15.10;67.10;101677.44;4984467;28;20204;-79
2021/09/19 10:57:18;;;;;;;3.10;2.50;;;;;;;15.10;65.80;101719.50;4985480;28;20207;-79
2021/09/19 11:00:13;;;;;;;3.00;2.80;;;;;;;15.09;65.44;101739.69;4982054;28;20227;-77
2021/09/19 11:02:42;;;;;;;2.57;2.37;;;;;;;15.05;64.75;101763.44;4983186;28;20219;-77
2021/09/19 11:05:24;;;;;;;3.40;2.27;;;;;;;15.01;64.32;101788.91;4982809;28;20215;-76
2021/09/19 11:07:52;;;;;;;2.97;2.70;;;;;;;14.91;65.34;101749.66;4982726;28;20299;-77
2021/09/19 11:10:18;;;;;;;3.63;2.67;;;;;;;14.85;65.26;101735.72;4982713;28;20731;-77
2021/09/19 11:12:50;;;;;;;2.97;2.20;;;;;;;14.86;65.35;101739.19;4294149;28;10000719;-75
2021/09/19 11:15:23;;;;;;;3.33;3.00;;;;;;;14.82;65.33;101729.63;4979959;28;20212;-77
2021/09/19 11:17:50;;;;;;;3.53;2.33;;;;;;;14.79;65.90;101712.16;4980069;28;20216;-75
2021/09/19 11:20:31;;;;;;;3.10;2.50;;;;;;;14.74;66.02;101689.44;4979521;28;20682;-77
2021/09/19 11:23:21;;;;;;;2.70;2.50;;;;;;;14.75;66.86;101664.91;4980046;28;20216;-78
2021/09/19 11:25:48;;;;;;;2.73;2.40;;;;;;;14.75;67.56;101636.88;4980437;28;20211;-77
2021/09/19 11:28:16;;;;;;;2.33;2.13;;;;;;;14.78;66.58;101660.47;4979823;28;20209;-77